sensor_id;sensor_type;location;lat;lon;timestamp;temperature;humidity
35463;DHT22;21578;47.892;9.970;2023-08-08T00:01:00;9.90;96.60
35463;DHT22;21578;47.892;9.970;2023-08-08T00:05:47;9.90;96.60
35463;DHT22;21578;47.892;9.970;2023-08-08T00:10:34;9.90;96.60
35463;DHT22;21578;47.892;9.970;2023-08-08T00:15:22;9.90;96.60
35463;DHT22;21578;47.892;9.970;2023-08-08T00:20:10;9.80;96.60
35463;DHT22;21578;47.892;9.970;2023-08-08T00:24:57;9.80;96.60
35463;DHT22;21578;47.892;9.970;2023-08-08T00:29:44;9.80;96.60
35463;DHT22;21578;47.892;9.970;2023-08-08T00:34:32;9.80;96.60
35463;DHT22;21578;47.892;9.970;2023-08-08T00:39:19;9.90;96.60
35463;DHT22;21578;47.892;9.970;2023-08-08T00:44:06;9.90;96.60
35463;DHT22;21578;47.892;9.970;2023-08-08T00:48:54;9.80;96.60
35463;DHT22;21578;47.892;9.970;2023-08-08T00:53:44;9.80;96.60
35463;DHT22;21578;47.892;9.970;2023-08-08T00:58:31;9.80;96.60
35463;DHT22;21578;47.892;9.970;2023-08-08T01:03:18;9.80;96.60
35463;DHT22;21578;47.892;9.970;2023-08-08T01:08:06;9.80;96.60
35463;DHT22;21578;47.892;9.970;2023-08-08T01:12:58;9.80;96.60
35463;DHT22;21578;47.892;9.970;2023-08-08T01:17:46;9.80;96.60
35463;DHT22;21578;47.892;9.970;2023-08-08T01:22:37;9.80;96.60
35463;DHT22;21578;47.892;9.970;2023-08-08T01:27:27;9.80;96.60
35463;DHT22;21578;47.892;9.970;2023-08-08T01:32:14;9.70;96.60
35463;DHT22;21578;47.892;9.970;2023-08-08T01:37:07;9.70;96.60
35463;DHT22;21578;47.892;9.970;2023-08-08T01:41:56;9.80;96.60
35463;DHT22;21578;47.892;9.970;2023-08-08T01:46:47;9.90;96.60
35463;DHT22;21578;47.892;9.970;2023-08-08T01:51:34;9.90;96.60
35463;DHT22;21578;47.892;9.970;2023-08-08T01:56:21;9.90;96.60
35463;DHT22;21578;47.892;9.970;2023-08-08T02:01:08;9.80;96.60
35463;DHT22;21578;47.892;9.970;2023-08-08T02:05:57;9.80;96.60
35463;DHT22;21578;47.892;9.970;2023-08-08T02:10:44;9.80;96.60
35463;DHT22;21578;47.892;9.970;2023-08-08T02:36:30;9.80;96.60
35463;DHT22;21578;47.892;9.970;2023-08-08T02:41:19;9.80;96.60
35463;DHT22;21578;47.892;9.970;2023-08-08T02:46:22;9.80;96.60
35463;DHT22;21578;47.892;9.970;2023-08-08T08:59:49;15.00;96.60
35463;DHT22;21578;47.892;9.970;2023-08-08T09:04:36;15.20;96.60
35463;DHT22;21578;47.892;9.970;2023-08-08T09:09:24;15.50;96.60
35463;DHT22;21578;47.892;9.970;2023-08-08T09:14:16;15.60;94.70
35463;DHT22;21578;47.892;9.970;2023-08-08T09:19:04;15.80;93.50
35463;DHT22;21578;47.892;9.970;2023-08-08T09:23:51;15.90;93.00
35463;DHT22;21578;47.892;9.970;2023-08-08T09:28:38;16.00;90.40
35463;DHT22;21578;47.892;9.970;2023-08-08T09:33:28;16.10;92.60
35463;DHT22;21578;47.892;9.970;2023-08-08T09:38:17;16.30;91.90
35463;DHT22;21578;47.892;9.970;2023-08-08T09:43:07;16.50;91.90
35463;DHT22;21578;47.892;9.970;2023-08-08T09:47:55;16.40;87.70
35463;DHT22;21578;47.892;9.970;2023-08-08T09:52:43;16.60;90.30
35463;DHT22;21578;47.892;9.970;2023-08-08T09:57:32;16.80;87.30
35463;DHT22;21578;47.892;9.970;2023-08-08T10:02:19;17.00;86.20
35463;DHT22;21578;47.892;9.970;2023-08-08T10:07:06;17.10;87.40
35463;DHT22;21578;47.892;9.970;2023-08-08T10:11:54;17.30;84.70
35463;DHT22;21578;47.892;9.970;2023-08-08T10:16:44;17.40;83.40
35463;DHT22;21578;47.892;9.970;2023-08-08T10:21:33;17.40;82.10
35463;DHT22;21578;47.892;9.970;2023-08-08T10:26:20;17.40;81.70
35463;DHT22;21578;47.892;9.970;2023-08-08T10:31:17;17.60;82.30
35463;DHT22;21578;47.892;9.970;2023-08-08T10:36:08;17.70;79.50
35463;DHT22;21578;47.892;9.970;2023-08-08T10:40:58;17.60;81.70
35463;DHT22;21578;47.892;9.970;2023-08-08T10:45:46;17.60;80.20
35463;DHT22;21578;47.892;9.970;2023-08-08T10:50:38;17.70;81.90
35463;DHT22;21578;47.892;9.970;2023-08-08T10:55:31;17.80;81.10
35463;DHT22;21578;47.892;9.970;2023-08-08T11:00:20;18.00;81.30
35463;DHT22;21578;47.892;9.970;2023-08-08T11:05:07;18.00;81.60
35463;DHT22;21578;47.892;9.970;2023-08-08T11:09:56;18.10;76.90
35463;DHT22;21578;47.892;9.970;2023-08-08T11:14:45;18.20;78.80
35463;DHT22;21578;47.892;9.970;2023-08-08T11:19:39;18.40;74.80
35463;DHT22;21578;47.892;9.970;2023-08-08T11:24:26;18.60;76.20
35463;DHT22;21578;47.892;9.970;2023-08-08T11:29:13;19.00;76.40
35463;DHT22;21578;47.892;9.970;2023-08-08T11:34:02;19.40;75.40
35463;DHT22;21578;47.892;9.970;2023-08-08T11:38:50;19.70;74.00
35463;DHT22;21578;47.892;9.970;2023-08-08T11:43:38;19.80;73.30
35463;DHT22;21578;47.892;9.970;2023-08-08T11:48:25;20.10;72.60
35463;DHT22;21578;47.892;9.970;2023-08-08T11:53:14;19.70;70.50
35463;DHT22;21578;47.892;9.970;2023-08-08T11:58:01;19.80;72.40
35463;DHT22;21578;47.892;9.970;2023-08-08T12:02:48;20.10;71.30
35463;DHT22;21578;47.892;9.970;2023-08-08T12:07:35;20.30;71.60
35463;DHT22;21578;47.892;9.970;2023-08-08T12:12:25;20.20;72.10
35463;DHT22;21578;47.892;9.970;2023-08-08T12:17:14;20.80;71.00
35463;DHT22;21578;47.892;9.970;2023-08-08T12:22:01;20.90;67.70
35463;DHT22;21578;47.892;9.970;2023-08-08T12:26:48;20.90;68.50
35463;DHT22;21578;47.892;9.970;2023-08-08T12:31:36;21.30;69.10
35463;DHT22;21578;47.892;9.970;2023-08-08T12:36:23;21.80;68.50
35463;DHT22;21578;47.892;9.970;2023-08-08T12:41:10;21.20;66.70
35463;DHT22;21578;47.892;9.970;2023-08-08T12:45:57;21.30;69.20
35463;DHT22;21578;47.892;9.970;2023-08-08T12:50:45;21.50;66.90
35463;DHT22;21578;47.892;9.970;2023-08-08T12:55:32;21.50;64.50
35463;DHT22;21578;47.892;9.970;2023-08-08T13:00:19;21.40;68.50
35463;DHT22;21578;47.892;9.970;2023-08-08T13:05:06;21.20;68.30
35463;DHT22;21578;47.892;9.970;2023-08-08T13:09:56;21.20;67.40
35463;DHT22;21578;47.892;9.970;2023-08-08T13:14:43;21.40;67.60
35463;DHT22;21578;47.892;9.970;2023-08-08T13:19:30;21.60;65.60
35463;DHT22;21578;47.892;9.970;2023-08-08T13:24:17;21.30;67.20
35463;DHT22;21578;47.892;9.970;2023-08-08T13:29:07;21.20;68.90
35463;DHT22;21578;47.892;9.970;2023-08-08T13:33:54;21.40;67.00
35463;DHT22;21578;47.892;9.970;2023-08-08T13:38:41;21.10;69.40
35463;DHT22;21578;47.892;9.970;2023-08-08T13:43:28;20.70;70.00
35463;DHT22;21578;47.892;9.970;2023-08-08T13:48:17;20.50;69.20
35463;DHT22;21578;47.892;9.970;2023-08-08T13:53:04;20.60;70.30
35463;DHT22;21578;47.892;9.970;2023-08-08T13:57:51;20.80;69.80
35463;DHT22;21578;47.892;9.970;2023-08-08T14:02:38;21.10;70.00
35463;DHT22;21578;47.892;9.970;2023-08-08T14:07:26;21.00;68.90
35463;DHT22;21578;47.892;9.970;2023-08-08T14:12:13;21.60;68.30
35463;DHT22;21578;47.892;9.970;2023-08-08T14:17:00;21.90;70.50
35463;DHT22;21578;47.892;9.970;2023-08-08T14:21:47;22.20;67.60
35463;DHT22;21578;47.892;9.970;2023-08-08T14:26:35;21.60;67.40
35463;DHT22;21578;47.892;9.970;2023-08-08T14:31:22;21.60;67.70
35463;DHT22;21578;47.892;9.970;2023-08-08T14:36:09;21.60;69.40
35463;DHT22;21578;47.892;9.970;2023-08-08T14:40:56;21.90;68.10
35463;DHT22;21578;47.892;9.970;2023-08-08T14:45:45;22.10;67.30
35463;DHT22;21578;47.892;9.970;2023-08-08T14:50:32;21.90;66.00
35463;DHT22;21578;47.892;9.970;2023-08-08T14:55:19;21.70;66.20
35463;DHT22;21578;47.892;9.970;2023-08-08T15:00:07;22.20;66.20
35463;DHT22;21578;47.892;9.970;2023-08-08T15:04:56;22.60;66.40
35463;DHT22;21578;47.892;9.970;2023-08-08T15:09:43;22.70;64.30
35463;DHT22;21578;47.892;9.970;2023-08-08T15:14:30;23.00;64.70
35463;DHT22;21578;47.892;9.970;2023-08-08T15:19:17;22.70;64.40
35463;DHT22;21578;47.892;9.970;2023-08-08T15:24:07;22.70;64.50
35463;DHT22;21578;47.892;9.970;2023-08-08T15:28:55;22.90;63.40
35463;DHT22;21578;47.892;9.970;2023-08-08T15:33:42;23.30;65.20
35463;DHT22;21578;47.892;9.970;2023-08-08T15:38:29;23.20;63.60
35463;DHT22;21578;47.892;9.970;2023-08-08T15:43:17;23.20;64.10
35463;DHT22;21578;47.892;9.970;2023-08-08T15:48:05;23.10;62.90
35463;DHT22;21578;47.892;9.970;2023-08-08T15:52:53;22.70;63.80
35463;DHT22;21578;47.892;9.970;2023-08-08T15:57:42;22.90;64.90
35463;DHT22;21578;47.892;9.970;2023-08-08T16:02:30;22.90;63.10
35463;DHT22;21578;47.892;9.970;2023-08-08T16:07:17;22.90;63.90
35463;DHT22;21578;47.892;9.970;2023-08-08T16:12:05;23.30;65.00
35463;DHT22;21578;47.892;9.970;2023-08-08T16:16:52;23.60;62.80
35463;DHT22;21578;47.892;9.970;2023-08-08T16:21:40;23.20;64.50
35463;DHT22;21578;47.892;9.970;2023-08-08T16:26:27;22.90;63.90
35463;DHT22;21578;47.892;9.970;2023-08-08T16:31:14;22.90;64.00
35463;DHT22;21578;47.892;9.970;2023-08-08T16:36:01;22.70;64.40
35463;DHT22;21578;47.892;9.970;2023-08-08T16:40:50;23.00;65.00
35463;DHT22;21578;47.892;9.970;2023-08-08T16:45:37;22.90;64.20
35463;DHT22;21578;47.892;9.970;2023-08-08T16:50:24;22.80;63.50
35463;DHT22;21578;47.892;9.970;2023-08-08T16:55:11;22.80;63.60
35463;DHT22;21578;47.892;9.970;2023-08-08T16:59:59;22.10;65.40
35463;DHT22;21578;47.892;9.970;2023-08-08T17:04:47;21.80;66.90
35463;DHT22;21578;47.892;9.970;2023-08-08T17:09:34;22.10;66.50
35463;DHT22;21578;47.892;9.970;2023-08-08T17:14:21;22.00;66.00
35463;DHT22;21578;47.892;9.970;2023-08-08T17:19:10;21.50;67.30
35463;DHT22;21578;47.892;9.970;2023-08-08T17:23:59;21.50;68.20
35463;DHT22;21578;47.892;9.970;2023-08-08T17:28:47;21.70;68.60
35463;DHT22;21578;47.892;9.970;2023-08-08T17:33:35;21.80;67.30
35463;DHT22;21578;47.892;9.970;2023-08-08T17:38:24;21.90;68.90
35463;DHT22;21578;47.892;9.970;2023-08-08T17:43:12;21.70;69.10
35463;DHT22;21578;47.892;9.970;2023-08-08T17:47:59;21.60;68.60
35463;DHT22;21578;47.892;9.970;2023-08-08T17:52:46;21.20;70.00
35463;DHT22;21578;47.892;9.970;2023-08-08T17:57:35;20.90;70.70
35463;DHT22;21578;47.892;9.970;2023-08-08T18:02:21;20.60;72.10
35463;DHT22;21578;47.892;9.970;2023-08-08T18:07:09;20.30;73.70
35463;DHT22;21578;47.892;9.970;2023-08-08T18:11:56;20.00;74.40
35463;DHT22;21578;47.892;9.970;2023-08-08T18:16:44;19.80;74.80
35463;DHT22;21578;47.892;9.970;2023-08-08T18:21:31;19.50;76.10
35463;DHT22;21578;47.892;9.970;2023-08-08T18:26:18;19.40;77.60
35463;DHT22;21578;47.892;9.970;2023-08-08T18:31:05;19.20;76.80
35463;DHT22;21578;47.892;9.970;2023-08-08T18:35:53;19.00;77.30
35463;DHT22;21578;47.892;9.970;2023-08-08T18:40:40;18.90;78.80
35463;DHT22;21578;47.892;9.970;2023-08-08T18:45:27;18.70;79.60
35463;DHT22;21578;47.892;9.970;2023-08-08T18:50:14;18.40;80.50
35463;DHT22;21578;47.892;9.970;2023-08-08T18:55:03;18.30;80.90
35463;DHT22;21578;47.892;9.970;2023-08-08T18:59:50;18.10;82.30
35463;DHT22;21578;47.892;9.970;2023-08-08T19:04:37;17.90;83.00
35463;DHT22;21578;47.892;9.970;2023-08-08T19:09:24;17.80;82.70
35463;DHT22;21578;47.892;9.970;2023-08-08T19:14:12;17.60;82.50
35463;DHT22;21578;47.892;9.970;2023-08-08T19:18:59;17.50;83.00
35463;DHT22;21578;47.892;9.970;2023-08-08T19:23:46;17.40;83.20
35463;DHT22;21578;47.892;9.970;2023-08-08T19:28:33;17.40;82.00
35463;DHT22;21578;47.892;9.970;2023-08-08T19:33:21;17.30;83.10
35463;DHT22;21578;47.892;9.970;2023-08-08T19:38:08;17.10;84.60
35463;DHT22;21578;47.892;9.970;2023-08-08T19:42:55;17.00;85.40
35463;DHT22;21578;47.892;9.970;2023-08-08T19:47:42;17.00;84.20
35463;DHT22;21578;47.892;9.970;2023-08-08T19:52:30;16.80;85.10
35463;DHT22;21578;47.892;9.970;2023-08-08T19:57:17;16.70;85.00
35463;DHT22;21578;47.892;9.970;2023-08-08T20:02:04;16.70;85.40
35463;DHT22;21578;47.892;9.970;2023-08-08T20:06:51;16.50;85.90
35463;DHT22;21578;47.892;9.970;2023-08-08T20:11:39;16.30;87.60
35463;DHT22;21578;47.892;9.970;2023-08-08T20:16:27;16.30;87.70
35463;DHT22;21578;47.892;9.970;2023-08-08T20:21:15;16.10;88.30
35463;DHT22;21578;47.892;9.970;2023-08-08T20:26:02;16.00;88.90
35463;DHT22;21578;47.892;9.970;2023-08-08T20:30:50;15.90;90.50
35463;DHT22;21578;47.892;9.970;2023-08-08T20:35:37;15.80;90.80
35463;DHT22;21578;47.892;9.970;2023-08-08T20:40:26;15.80;91.70
35463;DHT22;21578;47.892;9.970;2023-08-08T20:45:25;15.70;92.20
35463;DHT22;21578;47.892;9.970;2023-08-08T20:50:18;15.60;92.20
35463;DHT22;21578;47.892;9.970;2023-08-08T20:55:06;15.60;92.20
35463;DHT22;21578;47.892;9.970;2023-08-08T20:59:53;15.50;92.40
35463;DHT22;21578;47.892;9.970;2023-08-08T21:04:40;15.50;92.70
35463;DHT22;21578;47.892;9.970;2023-08-08T21:09:28;15.40;92.80
35463;DHT22;21578;47.892;9.970;2023-08-08T21:14:15;15.40;92.80
35463;DHT22;21578;47.892;9.970;2023-08-08T21:19:02;15.30;92.90
35463;DHT22;21578;47.892;9.970;2023-08-08T21:23:49;15.30;93.10
35463;DHT22;21578;47.892;9.970;2023-08-08T21:28:38;15.30;92.80
35463;DHT22;21578;47.892;9.970;2023-08-08T21:33:25;15.30;92.90
35463;DHT22;21578;47.892;9.970;2023-08-08T21:38:12;15.20;93.90
35463;DHT22;21578;47.892;9.970;2023-08-08T21:42:58;15.20;94.50
35463;DHT22;21578;47.892;9.970;2023-08-08T21:47:47;15.20;95.40
35463;DHT22;21578;47.892;9.970;2023-08-08T21:52:34;15.20;95.50
35463;DHT22;21578;47.892;9.970;2023-08-08T21:57:21;15.20;96.10
35463;DHT22;21578;47.892;9.970;2023-08-08T22:02:08;15.10;96.40
35463;DHT22;21578;47.892;9.970;2023-08-08T22:06:56;15.10;96.60
35463;DHT22;21578;47.892;9.970;2023-08-08T22:11:43;15.20;95.10
35463;DHT22;21578;47.892;9.970;2023-08-08T22:16:30;15.10;95.80
35463;DHT22;21578;47.892;9.970;2023-08-08T22:21:17;14.90;95.80
35463;DHT22;21578;47.892;9.970;2023-08-08T22:26:05;14.80;96.60
35463;DHT22;21578;47.892;9.970;2023-08-08T22:30:52;14.80;96.60
35463;DHT22;21578;47.892;9.970;2023-08-08T22:35:39;14.70;96.60
35463;DHT22;21578;47.892;9.970;2023-08-08T22:40:26;14.70;96.60
35463;DHT22;21578;47.892;9.970;2023-08-08T22:45:14;14.70;96.60
35463;DHT22;21578;47.892;9.970;2023-08-08T22:50:01;14.70;96.60
35463;DHT22;21578;47.892;9.970;2023-08-08T22:54:49;14.70;96.60
35463;DHT22;21578;47.892;9.970;2023-08-08T22:59:36;14.60;96.60
35463;DHT22;21578;47.892;9.970;2023-08-08T23:04:24;14.60;96.60
35463;DHT22;21578;47.892;9.970;2023-08-08T23:09:11;14.60;96.60
35463;DHT22;21578;47.892;9.970;2023-08-08T23:13:58;14.70;96.60
35463;DHT22;21578;47.892;9.970;2023-08-08T23:18:45;14.60;96.60
35463;DHT22;21578;47.892;9.970;2023-08-08T23:23:33;14.60;96.60
35463;DHT22;21578;47.892;9.970;2023-08-08T23:28:20;14.50;96.60
35463;DHT22;21578;47.892;9.970;2023-08-08T23:33:07;14.50;96.60
35463;DHT22;21578;47.892;9.970;2023-08-08T23:37:55;14.50;96.60
35463;DHT22;21578;47.892;9.970;2023-08-08T23:42:43;14.50;96.60
35463;DHT22;21578;47.892;9.970;2023-08-08T23:47:30;14.40;96.60
35463;DHT22;21578;47.892;9.970;2023-08-08T23:52:17;14.50;96.60
35463;DHT22;21578;47.892;9.970;2023-08-08T23:57:04;14.50;96.60
